Manhattan, KS

9:53 PM CDT on September 30, 2016 (GMT -0500)
Manhattan Regional | | Change Station

Elev 1056 ft 39.14 °N, 96.68 °W | Updated 1 minute ago

Clear
Clear
54 °F
Feels Like 54 °F
N
0
Wind Variable Wind from North

Today
High -- | Low -- °F
--% Chance of Precip.
Yesterday
High -- | Low -- °F
Precip. -- in
Pressure 30.13 in
Visibility 10.0 miles
Clouds Clear
Dew Point 51 °F
Humidity 90%
Rainfall 0.00 in
Snow Depth Not available.
7:22 AM 7:10 PM
New Moon, 0% visible
METAR KMHK 010252Z AUTO 00000KT 10SM CLR 12/11 A3013 RMK AO2 SLP203 T01220106 55002
Pressure 30.13 in
Visibility 10.0 miles
Clouds Clear
Dew Point 51 °F
Humidity 90%
Rainfall 0.00 in
Snow Depth Not available.
7:22 AM 7:10 PM
New Moon, 0% visible
METAR KMHK 010252Z AUTO 00000KT 10SM CLR 12/11 A3013 RMK AO2 SLP203 T01220106 55002

10-Day Weather Forecast

Almanac

Astronomy

Sep. 30, 2016 Rise Set
Actual Time
Civil Twilight
Nautical Twilight
Astronomical Twilight
Moon
Length of Visible Light
Length of Day
Tomorrow will be .
, % of the Moon is Illuminated

Today's Extremes

State Highs State Lows

Community

WunderPhotos

Upload Photos

1,942,880 photos uploaded!

WunderBlog® & News

Nearby

Air Quality

  Air Quality AQ Index Pollutant
Not available.

Snow Depth

Station Depth Elevation

Earthquake Activity

City Distance Mag. Time & Date
Minimum magnitude displayed is 2.5.

Coastal Water Temperatures

Place Temperature

Stations

Nearby Weather Stations

Station Location Temp. Windchill Dew Point Humidity Wind Precip. Elev Updated Type
                   

Watches & Warnings

There are currently no watches in effect.